首页
METAR-TAF:

METAR-TAF

机场 :

Lydd, 英格兰

纬度: 50-57N, 经度: 000-56E, 海拔: 3米

当前天气观测

该预报发布于38分钟前的11:20 UTC
风速11节,风向西北
温度 19°C
湿度 52%
气压 1027 hPa
能见度10公里或以上
散云层高于4500英尺

METAR: EGMD 111120Z 32011KT 9999 SCT045 19/09 Q1027

时间: 12:58 (11:58 UTC)

预报

该预报发布于4小时和0分钟前的07:58 UTC
预报有效从11日的 09点(UTC)到 11日的 18点(UTC)
风速9节,风向北转西北
能见度10公里或以上
少量云层高于3000英尺
成为
从 11日的 11点(UTC)到 11日的 14点(UTC)
风速10节,风向

TAF: EGMD 110758Z 1109/1118 33009KT 9999 FEW030 BECMG 1111/1114 19010KT

超过4000个机场的气象观测和天气预报(METAR&TAF报告)。

可查询的气象台以黄色和红色小点在地图上表示。

将鼠标移到小点上方,可查看气象台名称。

然后点击查看天气观测和预报。

如需切换地图:点击带黑十字的绿色按钮放大地图;点击带横线的绿色按钮缩小地图;或者点击绿色箭头查看邻近地区的地图。


METAR-TAF: